Sunday, June 17, 2018, 9:59 PM EDT
Back to Local

KHYA, Hyannis Barnstable Boardmn

Location: West Yarmouth, MA, United States Lat: 41.667
Local Time: 9:59 PM EDT ( 1:59 GMT) Lon: -70.267
Time Zone: US/Eastern Elev: 52 ft

Show me the last for .
Show Decoded

2018-06-17 20:56 METAR KHYA 180056Z 21006KT 10SM CLR 20/16 A3008 RMK AO2 SLP187 T02000156 =
2018-06-17 19:56 METAR KHYA 172356Z 20005KT 10SM CLR 21/15 A3008 RMK AO2 SLP188 T02110150 10272
                 20206 53002 =
2018-06-17 18:56 METAR KHYA 172256Z 20007KT 10SM CLR 22/14 A3008 RMK AO2 SLP188 T02220139 =
2018-06-17 17:56 METAR KHYA 172156Z 20009KT 10SM CLR 22/13 A3008 RMK AO2 SLP186 T02220133 =
2018-06-17 16:56 METAR KHYA 172056Z 19009KT 10SM CLR 23/14 A3008 RMK AO2 SLP186 T02280139 51006 =
2018-06-17 15:56 METAR KHYA 171956Z 17008KT 10SM CLR 26/13 A3008 RMK AO2 SLP185 T02610128 =
2018-06-17 14:56 METAR KHYA 171856Z VRB05KT 10SM CLR 26/12 A3007 RMK AO2 SLP182 T02610122 =
2018-06-17 13:56 METAR KHYA 171756Z 13006KT 10SM CLR 26/13 A3006 RMK AO2 SLP180 T02560133 10283
                 20239 58007 =
2018-06-17 12:56 METAR KHYA 171656Z 16005KT 10SM CLR 26/15 A3007 RMK AO2 SLP183 T02560150 =
2018-06-17 11:56 METAR KHYA 171556Z 05004KT 10SM CLR 27/13 A3008 RMK AO2 SLP186 T02720133 =
2018-06-17 10:56 METAR KHYA 171456Z 36007KT 10SM CLR 27/13 A3008 RMK AO2 SLP187 T02670133 53014 =
2018-06-17 09:56 METAR KHYA 171356Z 02005KT 10SM CLR 26/13 A3006 RMK AO2 SLP181 T02560133 =
2018-06-17 08:56 METAR KHYA 171256Z 01007KT 10SM CLR 24/13 A3005 RMK AO2 SLP177 T02440133 =
2018-06-17 07:56 METAR KHYA 171156Z 36004KT 10SM CLR 24/14 A3004 RMK AO2 SLP173 T02390144 10239
                 20128 53012 =
2018-06-17 06:56 METAR KHYA 171056Z 00000KT 10SM CLR 19/15 A3003 RMK AO2 SLP168 T01890150 =
2018-06-17 05:56 METAR KHYA 170956Z 00000KT 10SM CLR 13/12 A3002 RMK AO2 SLP165 T01330122 =
2018-06-17 04:56 METAR KHYA 170856Z AUTO 00000KT 10SM CLR 13/12 A3001 RMK AO2 SLP161 T01330122
                 53007 =
2018-06-17 03:56 METAR KHYA 170756Z AUTO 00000KT 10SM CLR 14/12 A2999 RMK AO2 SLP156 T01390122 =
2018-06-17 02:56 METAR KHYA 170656Z AUTO 00000KT 10SM CLR 14/12 A2998 RMK AO2 SLP154 T01390122 =
2018-06-17 01:56 METAR KHYA 170556Z AUTO 00000KT 10SM CLR 16/13 A2998 RMK AO2 SLP154 T01560128
                 10200 20150 58001 =
2018-06-17 00:56 METAR KHYA 170456Z AUTO 24005KT 10SM CLR 17/13 A2999 RMK AO2 SLP157 T01670133
                 402670139 =
2018-06-16 23:56 METAR KHYA 170356Z AUTO 25005KT 10SM CLR 17/13 A3000 RMK AO2 SLP159 T01720133 =
2018-06-16 22:56 METAR KHYA 170256Z AUTO 24004KT 10SM CLR 17/13 A2999 RMK AO2 SLP155 T01720133
                 50012 =

Support USWX by starting your Amazon purchase here.